UAL5769 KDEN-KASE
Flight info
| Callsign | UAL5769 |
|---|---|
| Flight time | N/A |
| Altitude | 26000 |
| Route | CONNR8 CONNR MMARY MMARY1 |
| Aircraft | A319/M-SDE3FGHIRWY/LB1 |
Departure
| Time | 2026-04-30 22:25 |
|---|---|
| Airport | Denver International Airport (KDEN) |
Arrival
| Time | N/A |
|---|---|
| Airport | Aspen-Pitkin County Airport (Sardy Field) (KASE) |
| Time | Latitude | Longitude | Altitude | Speed | Heading |
|---|---|---|---|---|---|
| 2026-04-30 22:17 | 39.86347 | -104.66638 | 5377 ft | 0 kts | 180° |
| 2026-04-30 22:18 | 39.86355 | -104.66638 | 5373 ft | 4 kts | 179° |
| 2026-04-30 22:19 | 39.86404 | -104.66653 | 5375 ft | 4 kts | 123° |
| 2026-04-30 22:19 | 39.86409 | -104.66666 | 5375 ft | 0 kts | 91° |
| 2026-04-30 22:21 | 39.86408 | -104.66643 | 5376 ft | 7 kts | 91° |
| 2026-04-30 22:21 | 39.86406 | -104.66549 | 5377 ft | 13 kts | 91° |
| 2026-04-30 22:21 | 39.86449 | -104.66508 | 5377 ft | 8 kts | 1° |
| 2026-04-30 22:22 | 39.86525 | -104.66505 | 5377 ft | 14 kts | 1° |
| 2026-04-30 22:22 | 39.86591 | -104.66431 | 5377 ft | 15 kts | 88° |
| 2026-04-30 22:22 | 39.86591 | -104.66285 | 5378 ft | 14 kts | 90° |
| 2026-04-30 22:22 | 39.86659 | -104.66223 | 5379 ft | 16 kts | 0° |
| 2026-04-30 22:23 | 39.86735 | -104.66221 | 5376 ft | 24 kts | 0° |
| 2026-04-30 22:23 | 39.86886 | -104.66220 | 5370 ft | 29 kts | 0° |
| 2026-04-30 22:23 | 39.87096 | -104.66217 | 5367 ft | 28 kts | 0° |
| 2026-04-30 22:23 | 39.87305 | -104.66214 | 5364 ft | 32 kts | 1° |
| 2026-04-30 22:24 | 39.87533 | -104.66213 | 5361 ft | 27 kts | 0° |
| 2026-04-30 22:24 | 39.87727 | -104.66203 | 5360 ft | 22 kts | 22° |
| 2026-04-30 22:24 | 39.87753 | -104.66023 | 5358 ft | 24 kts | 90° |
| 2026-04-30 22:24 | 39.87751 | -104.65585 | 5353 ft | 82 kts | 90° |
| 2026-04-30 22:25 | 39.87744 | -104.64537 | 5340 ft | 151 kts | 90° |
| 2026-04-30 22:25 | 39.87723 | -104.62980 | 5684 ft | 179 kts | 92° |
| 2026-04-30 22:25 | 39.87673 | -104.61321 | 6637 ft | 185 kts | 94° |
| 2026-04-30 22:25 | 39.87122 | -104.59804 | 7389 ft | 195 kts | 135° |
| 2026-04-30 22:26 | 39.84251 | -104.59274 | 8003 ft | 248 kts | 206° |
| 2026-04-30 22:26 | 39.82992 | -104.60935 | 8386 ft | 275 kts | 243° |
| 2026-04-30 22:26 | 39.82409 | -104.63378 | 9057 ft | 289 kts | 263° |
| 2026-04-30 22:27 | 39.82203 | -104.66006 | 10010 ft | 294 kts | 265° |
| 2026-04-30 22:27 | 39.81984 | -104.68660 | 10935 ft | 296 kts | 265° |
| 2026-04-30 22:27 | 39.81524 | -104.74000 | 12874 ft | 298 kts | 265° |
| 2026-04-30 22:28 | 39.81067 | -104.79371 | 14668 ft | 301 kts | 264° |
| 2026-04-30 22:28 | 39.80835 | -104.82088 | 15473 ft | 303 kts | 264° |
| 2026-04-30 22:29 | 39.80133 | -104.90362 | 17934 ft | 309 kts | 264° |
| 2026-04-30 22:29 | 39.79903 | -104.93120 | 18700 ft | 311 kts | 264° |
| 2026-04-30 22:30 | 39.78965 | -105.04168 | 21437 ft | 319 kts | 264° |
| 2026-04-30 22:31 | 39.78206 | -105.12855 | 23399 ft | 326 kts | 263° |
| 2026-04-30 22:32 | 39.77437 | -105.21725 | 25118 ft | 332 kts | 263° |
| 2026-04-30 22:32 | 39.76825 | -105.27690 | 26084 ft | 335 kts | 257° |
| 2026-04-30 22:33 | 39.75036 | -105.36420 | 26175 ft | 333 kts | 256° |
| 2026-04-30 22:33 | 39.73837 | -105.42240 | 26159 ft | 333 kts | 256° |
| 2026-04-30 22:34 | 39.72044 | -105.50965 | 26132 ft | 334 kts | 256° |
| 2026-04-30 22:35 | 39.70850 | -105.56794 | 26112 ft | 334 kts | 256° |
| 2026-04-30 22:36 | 39.68461 | -105.68484 | 26077 ft | 334 kts | 256° |
| 2026-04-30 22:36 | 39.67909 | -105.71381 | 26070 ft | 335 kts | 257° |
| 2026-04-30 22:37 | 39.66288 | -105.80224 | 25655 ft | 334 kts | 257° |
| 2026-04-30 22:37 | 39.65745 | -105.83145 | 25291 ft | 331 kts | 256° |
| 2026-04-30 22:37 | 39.64659 | -105.88897 | 24559 ft | 326 kts | 256° |
| 2026-04-30 22:38 | 39.63585 | -105.94573 | 23806 ft | 322 kts | 256° |
| 2026-04-30 22:38 | 39.62698 | -105.99241 | 23130 ft | 319 kts | 256° |
| 2026-04-30 22:39 | 39.62170 | -106.02020 | 22767 ft | 315 kts | 256° |
| 2026-04-30 22:39 | 39.60441 | -106.11076 | 21536 ft | 307 kts | 256° |
| 2026-04-30 22:40 | 39.59080 | -106.18212 | 20558 ft | 302 kts | 256° |
| 2026-04-30 22:41 | 39.57563 | -106.26077 | 19483 ft | 300 kts | 256° |
| 2026-04-30 22:41 | 39.56552 | -106.31296 | 18774 ft | 298 kts | 256° |
| 2026-04-30 22:42 | 39.54542 | -106.41665 | 17258 ft | 295 kts | 257° |
| 2026-04-30 22:43 | 39.54296 | -106.46914 | 16502 ft | 292 kts | 272° |
| 2026-04-30 22:43 | 39.54433 | -106.52148 | 15765 ft | 290 kts | 272° |
| 2026-04-30 22:44 | 39.54562 | -106.57354 | 15035 ft | 289 kts | 272° |
| 2026-04-30 22:45 | 39.54612 | -106.67759 | 13661 ft | 288 kts | 258° |
| 2026-04-30 22:45 | 39.53465 | -106.72482 | 13676 ft | 265 kts | 254° |
| 2026-04-30 22:46 | 39.52398 | -106.76868 | 13682 ft | 245 kts | 254° |
| 2026-04-30 22:47 | 39.51773 | -106.85368 | 13694 ft | 243 kts | 276° |
| 2026-04-30 22:47 | 39.52045 | -106.89750 | 13657 ft | 245 kts | 271° |
| 2026-04-30 22:48 | 39.51167 | -106.93994 | 13306 ft | 248 kts | 243° |
| 2026-04-30 22:49 | 39.47146 | -106.98161 | 12715 ft | 258 kts | 199° |
| 2026-04-30 22:49 | 39.41787 | -106.97756 | 12066 ft | 265 kts | 170° |
| 2026-04-30 22:50 | 39.34338 | -106.95608 | 10688 ft | 280 kts | 169° |
| 2026-04-30 22:51 | 39.30713 | -106.93971 | 9835 ft | 277 kts | 141° |
| 2026-04-30 22:51 | 39.28427 | -106.90262 | 8980 ft | 247 kts | 142° |
| 2026-04-30 22:52 | 39.27027 | -106.89229 | 8602 ft | 225 kts | 156° |
| 2026-04-30 22:52 | 39.24429 | -106.87885 | 7985 ft | 181 kts | 162° |
| 2026-04-30 22:53 | 39.22174 | -106.86783 | 8473 ft | 176 kts | 161° |
| 2026-04-30 22:53 | 39.19686 | -106.86094 | 9671 ft | 187 kts | 178° |
| 2026-04-30 22:53 | 39.18399 | -106.86047 | 10225 ft | 185 kts | 184° |
| 2026-04-30 22:54 | 39.15766 | -106.86880 | 10992 ft | 200 kts | 226° |
| 2026-04-30 22:55 | 39.12915 | -106.90985 | 12350 ft | 231 kts | 223° |
| 2026-04-30 22:55 | 39.10522 | -106.93844 | 12958 ft | 235 kts | 238° |
| 2026-04-30 22:56 | 39.09424 | -106.97640 | 13559 ft | 218 kts | 266° |
| 2026-04-30 22:56 | 39.08941 | -107.03541 | 14802 ft | 232 kts | 271° |
| 2026-04-30 22:57 | 39.09793 | -107.07548 | 14953 ft | 233 kts | 288° |
| 2026-04-30 22:57 | 39.11285 | -107.11222 | 14942 ft | 235 kts | 307° |
| 2026-04-30 22:58 | 39.13380 | -107.14455 | 14931 ft | 235 kts | 308° |
| 2026-04-30 22:59 | 39.17476 | -107.17790 | 14936 ft | 240 kts | 338° |
| 2026-04-30 22:59 | 39.22518 | -107.18127 | 14936 ft | 246 kts | 1° |